Duxbury, Vermont
Current Conditions -  °F | °C
As of 1:28 PM on Thursday 23 Oct 2014 (Local Time) from KMVL Reporting Station
Moderate Rain Moderate Rain  
Wind Chill: 40°   Ceiling: 1300
Heat Index: 44°   Visibility: 3mi
Dew Point: 41°   Wind: 7mph
Humidity: 89%   Direction: 350°N
Pressure: 29.93"   Gusts: NA
Location:  44.3961°N, 72.808°W
Report Text: KMVL 231728Z AUTO 35006KT 3SM RA BR OVC013 07/05 A2993 RMK AO2 P0006 T00670050
Loading
Personal Weather Stations






























Interactive Weather Map
Tropical Storm Tracking
New forecast layout! Learn more

10-Day Weather Forecast

Advertisements
Track Severe Weather on mobile